Time;durP1;ratioP1;P1;durP2;ratioP2;P2;SDS_P1;SDS_P2;PMS_P1;PMS_P2;Temp;Humidity;BMP_temperature;BMP_pressure;BME280_temperature;BME280_humidity;BME280_pressure;Samples;Min_cycle;Max_cycle;Signal;HPM_P1;HPM_P2
2023/02/03 00:00:46;;;;;;;6.47;2.15;;;15.00;62.40;;;;;;5034526;28;20018;-74
2023/02/03 00:03:12;;;;;;;6.60;1.88;;;15.00;62.40;;;;;;5034388;28;20081;-75
2023/02/03 00:05:38;;;;;;;6.40;1.63;;;15.00;62.30;;;;;;5034534;28;20116;-74
2023/02/03 00:08:05;;;;;;;7.30;1.60;;;15.00;62.30;;;;;;5034460;28;20034;-75
2023/02/03 00:10:37;;;;;;;6.30;1.02;;;15.00;62.30;;;;;;5034620;28;20056;-75
2023/02/03 00:13:02;;;;;;;6.03;1.40;;;15.00;62.30;;;;;;5034393;28;20060;-75
2023/02/03 00:15:29;;;;;;;5.20;1.52;;;15.00;62.30;;;;;;5034625;28;20384;-75
2023/02/03 00:17:55;;;;;;;9.65;1.95;;;15.00;62.40;;;;;;5034193;28;20555;-75
2023/02/03 00:20:21;;;;;;;6.15;1.90;;;15.00;62.30;;;;;;5034591;28;20423;-75
2023/02/03 00:22:47;;;;;;;6.22;2.38;;;15.00;62.30;;;;;;5034365;28;20025;-75
2023/02/03 00:25:12;;;;;;;5.13;1.40;;;15.00;62.40;;;;;;5034538;28;20445;-74
2023/02/03 00:27:38;;;;;;;6.88;1.27;;;15.00;62.30;;;;;;5016324;28;20030;-75
2023/02/03 00:30:04;;;;;;;5.45;1.33;;;15.00;62.40;;;;;;5034082;28;20065;-74
2023/02/03 00:32:30;;;;;;;4.32;1.67;;;15.00;62.40;;;;;;5034019;28;20032;-74
2023/02/03 00:34:55;;;;;;;5.43;1.33;;;15.00;62.40;;;;;;5033944;28;20029;-74
2023/02/03 00:37:22;;;;;;;4.53;1.20;;;15.00;62.40;;;;;;5034462;28;20029;-75
2023/02/03 00:39:48;;;;;;;5.75;1.65;;;15.00;62.30;;;;;;5033346;28;20053;-74
2023/02/03 00:42:14;;;;;;;4.55;1.33;;;15.00;62.40;;;;;;5033923;28;20030;-74
2023/02/03 00:44:40;;;;;;;5.03;1.40;;;15.00;62.40;;;;;;5033813;28;20056;-75
2023/02/03 00:47:05;;;;;;;7.25;1.50;;;15.00;62.30;;;;;;5033702;28;20017;-75
2023/02/03 00:49:31;;;;;;;4.57;1.60;;;15.00;63.10;;;;;;5033799;28;20025;-75
2023/02/03 00:51:56;;;;;;;4.20;1.30;;;15.00;62.40;;;;;;5033627;28;20025;-75
2023/02/03 00:54:22;;;;;;;7.13;1.55;;;15.00;62.40;;;;;;5033486;28;20029;-76
2023/02/03 00:56:48;;;;;;;6.20;1.60;;;15.00;63.10;;;;;;5033417;28;20109;-75
2023/02/03 00:59:14;;;;;;;4.47;1.17;;;15.00;62.40;;;;;;5033764;28;20116;-75
2023/02/03 01:01:40;;;;;;;5.13;1.55;;;15.00;62.40;;;;;;5033682;28;20025;-75
2023/02/03 01:04:07;;;;;;;3.97;1.50;;;14.90;62.40;;;;;;5033188;28;20124;-75
2023/02/03 01:06:33;;;;;;;5.30;1.33;;;15.00;63.10;;;;;;5033621;28;20142;-75
2023/02/03 01:09:01;;;;;;;6.22;1.90;;;15.00;62.40;;;;;;5033480;28;20029;-75
2023/02/03 01:11:28;;;;;;;4.28;1.27;;;15.00;62.40;;;;;;5033230;28;20021;-75
2023/02/03 01:13:55;;;;;;;4.57;1.38;;;15.00;62.50;;;;;;5033372;28;20072;-75
2023/02/03 01:16:22;;;;;;;4.60;1.38;;;15.00;62.40;;;;;;5033189;28;20468;-76
2023/02/03 01:18:49;;;;;;;7.55;1.38;;;14.90;62.30;;;;;;5033356;28;20025;-75
2023/02/03 01:21:20;;;;;;;3.83;1.40;;;15.00;62.40;;;;;;5033436;28;20087;-75
2023/02/03 01:23:46;;;;;;;5.05;1.10;;;15.00;62.50;;;;;;5033374;28;20029;-75
2023/02/03 01:26:15;;;;;;;6.65;1.40;;;15.00;62.40;;;;;;5033263;28;20361;-75
2023/02/03 01:28:41;;;;;;;4.28;1.20;;;15.00;62.50;;;;;;5033204;28;20091;-75
2023/02/03 01:31:13;;;;;;;3.47;1.30;;;15.00;62.40;;;;;;5032877;28;20464;-75
2023/02/03 01:33:40;;;;;;;6.97;1.50;;;15.00;62.50;;;;;;5033193;28;20025;-75
2023/02/03 01:36:09;;;;;;;5.78;1.45;;;14.90;62.40;;;;;;5032625;28;20028;-75
2023/02/03 01:38:36;;;;;;;4.30;1.23;;;14.90;62.40;;;;;;5033062;28;20435;-74
2023/02/03 01:41:05;;;;;;;3.92;1.13;;;15.00;62.40;;;;;;5032559;28;20460;-74
2023/02/03 01:43:36;;;;;;;4.65;1.50;;;15.00;62.40;;;;;;5032542;28;20475;-74
2023/02/03 01:46:31;;;;;;;8.60;2.25;;;15.00;62.40;;;;;;5032755;28;20017;-74
2023/02/03 01:49:26;;;;;;;4.68;1.20;;;15.00;62.40;;;;;;5032704;28;20040;-74
2023/02/03 01:51:53;;;;;;;5.10;1.17;;;15.00;62.40;;;;;;5032093;28;20025;-74
2023/02/03 01:54:26;;;;;;;4.25;1.25;;;15.00;62.40;;;;;;5032602;28;20097;-74
2023/02/03 01:56:57;;;;;;;3.20;1.20;;;15.00;62.40;;;;;;5032816;28;20419;-74
2023/02/03 01:59:24;;;;;;;4.88;1.45;;;15.00;62.40;;;;;;5032509;28;20473;-74
2023/02/03 02:01:53;;;;;;;5.43;1.10;;;15.00;62.40;;;;;;5032333;28;20029;-74
2023/02/03 02:04:20;;;;;;;5.53;1.20;;;15.00;62.40;;;;;;5032159;28;20451;-74
2023/02/03 02:06:47;;;;;;;4.50;1.25;;;15.00;62.40;;;;;;5032629;28;20026;-74
2023/02/03 02:09:14;;;;;;;8.45;2.05;;;14.90;62.40;;;;;;5032143;28;20034;-74
2023/02/03 02:11:40;;;;;;;5.70;1.60;;;14.90;62.30;;;;;;5032633;28;20038;-74
2023/02/03 02:14:08;;;;;;;5.00;1.02;;;14.90;62.40;;;;;;5032461;28;20025;-74
2023/02/03 02:16:47;;;;;;;4.63;1.48;;;14.90;62.40;;;;;;5032650;28;20017;-74
2023/02/03 02:19:50;;;;;;;5.43;1.15;;;14.90;62.40;;;;;;5032482;28;20384;-74
2023/02/03 02:22:43;;;;;;;5.63;1.48;;;14.90;62.30;;;;;;5032136;28;20492;-74
2023/02/03 02:25:41;;;;;;;7.07;1.33;;;14.90;62.40;;;;;;5032356;28;20105;-74
2023/02/03 02:28:23;;;;;;;3.15;1.08;;;14.90;62.40;;;;;;5008807;28;20049;-74
2023/02/03 02:31:05;;;;;;;5.25;1.58;;;14.90;62.50;;;;;;5032381;28;20498;-74
2023/02/03 02:33:55;;;;;;;10.13;1.80;;;14.90;62.40;;;;;;5032104;28;20053;-75
2023/02/03 02:36:51;;;;;;;5.30;1.23;;;14.90;62.40;;;;;;5032002;28;20025;-74
2023/02/03 02:39:36;;;;;;;6.28;1.30;;;14.90;62.40;;;;;;5031950;28;20029;-74
2023/02/03 02:42:31;;;;;;;3.80;1.52;;;14.90;62.40;;;;;;5032034;28;20022;-75
2023/02/03 02:45:07;;;;;;;6.88;1.70;;;14.90;62.40;;;;;;5032265;28;20384;-75
2023/02/03 02:47:33;;;;;;;5.63;1.48;;;14.90;62.40;;;;;;5032246;28;20053;-75
2023/02/03 02:50:15;;;;;;;9.40;1.70;;;14.90;62.50;;;;;;5031897;28;20022;-75
2023/02/03 02:52:45;;;;;;;5.60;1.88;;;14.90;62.50;;;;;;5032248;28;20025;-75
2023/02/03 02:55:23;;;;;;;7.00;1.30;;;14.90;62.50;;;;;;5032188;28;20056;-75
2023/02/03 02:57:53;;;;;;;5.00;1.42;;;14.90;62.40;;;;;;5032035;28;20114;-75
2023/02/03 03:00:21;;;;;;;9.55;2.20;;;14.90;62.40;;;;;;5031987;28;20021;-75
2023/02/03 03:02:47;;;;;;;3.92;1.48;;;14.90;62.50;;;;;;5032689;28;20068;-75
2023/02/03 03:05:16;;;;;;;5.75;1.63;;;14.90;62.50;;;;;;5018013;28;20484;-75
2023/02/03 03:08:01;;;;;;;5.30;1.80;;;14.90;62.50;;;;;;5035809;28;20072;-75
2023/02/03 03:10:31;;;;;;;6.55;1.90;;;14.90;62.40;;;;;;5035768;28;20021;-75
2023/02/03 03:13:06;;;;;;;;;;;14.90;62.50;;;;;;5036038;28;20021;-75
2023/02/03 03:15:33;;;;;;;5.88;1.38;;;14.90;62.50;;;;;;5035718;28;19905;-75
2023/02/03 03:18:18;;;;;;;8.52;1.85;;;14.90;62.60;;;;;;5035696;28;20380;-75
2023/02/03 03:20:46;;;;;;;6.40;1.90;;;14.90;62.40;;;;;;5035639;28;20025;-75
2023/02/03 03:23:25;;;;;;;6.70;2.05;;;14.90;62.50;;;;;;5035302;28;20036;-74
2023/02/03 03:26:12;;;;;;;7.25;1.67;;;14.90;62.50;;;;;;5035373;28;20104;-75
2023/02/03 03:28:49;;;;;;;7.53;1.95;;;14.90;63.20;;;;;;5035214;28;20041;-74
2023/02/03 03:31:17;;;;;;;6.57;1.80;;;14.90;62.50;;;;;;5035539;28;20021;-74
2023/02/03 03:33:45;;;;;;;5.78;1.00;;;14.90;62.60;;;;;;5035102;28;20543;-75
2023/02/03 03:36:36;;;;;;;6.72;1.45;;;14.80;62.50;;;;;;5035151;28;20086;-74
2023/02/03 03:39:27;;;;;;;5.20;1.33;;;14.80;62.50;;;;;;5034934;28;20022;-75
2023/02/03 03:42:10;;;;;;;6.45;1.65;;;14.80;62.50;;;;;;5035224;28;20036;-75
2023/02/03 03:44:42;;;;;;;3.70;1.20;;;14.80;62.60;;;;;;5035062;28;20093;-74
2023/02/03 03:47:38;;;;;;;11.52;2.00;;;14.80;62.60;;;;;;5034912;28;20041;-73
2023/02/03 03:50:08;;;;;;;6.78;1.52;;;14.80;62.60;;;;;;5035234;28;20034;-74
2023/02/03 03:52:35;;;;;;;;;;;14.80;62.60;;;;;;5035149;28;20487;-74
2023/02/03 03:55:04;;;;;;;6.93;1.60;;;14.80;62.50;;;;;;5035063;28;19905;-74
2023/02/03 03:57:37;;;;;;;4.20;1.55;;;14.80;62.60;;;;;;5034900;28;20021;-74
2023/02/03 04:00:08;;;;;;;7.03;1.67;;;14.80;62.60;;;;;;5034915;28;20442;-73
2023/02/03 04:02:37;;;;;;;7.05;1.25;;;14.80;62.60;;;;;;5034448;28;20072;-74
2023/02/03 04:05:04;;;;;;;8.00;1.67;;;14.80;62.60;;;;;;5034916;28;20045;-74
2023/02/03 04:07:57;;;;;;;6.68;1.58;;;14.80;62.60;;;;;;5034443;28;20515;-74
2023/02/03 04:10:32;;;;;;;5.38;1.85;;;14.80;62.50;;;;;;5032088;28;20496;-74
2023/02/03 04:12:58;;;;;;;5.38;1.20;;;14.80;62.50;;;;;;5034393;28;20018;-76
2023/02/03 04:15:24;;;;;;;4.32;1.25;;;14.80;62.60;;;;;;5033683;28;20021;-75
2023/02/03 04:17:50;;;;;;;8.82;2.22;;;14.80;62.60;;;;;;5034590;28;20095;-75
2023/02/03 04:20:17;;;;;;;6.65;1.50;;;14.70;62.50;;;;;;5034634;28;20466;-75
2023/02/03 04:22:43;;;;;;;6.30;1.92;;;14.70;62.50;;;;;;5034406;28;20022;-75
2023/02/03 04:25:09;;;;;;;5.65;1.65;;;14.70;62.50;;;;;;5034527;28;20053;-74
2023/02/03 04:27:35;;;;;;;4.75;1.38;;;14.70;62.50;;;;;;5034369;28;20021;-74
2023/02/03 04:30:01;;;;;;;5.15;1.63;;;14.70;62.50;;;;;;5034312;28;20026;-74
2023/02/03 04:32:29;;;;;;;4.40;1.73;;;14.70;62.50;;;;;;5034295;28;20025;-74
2023/02/03 04:34:57;;;;;;;5.75;1.33;;;14.70;62.50;;;;;;5033940;28;20526;-74
2023/02/03 04:37:25;;;;;;;4.75;1.40;;;14.70;62.60;;;;;;5034205;28;20428;-74
2023/02/03 04:39:55;;;;;;;6.75;1.48;;;14.70;62.50;;;;;;5034087;28;20032;-74
2023/02/03 04:42:22;;;;;;;7.45;1.92;;;14.80;62.70;;;;;;5034193;28;20068;-74
2023/02/03 04:44:48;;;;;;;10.15;2.13;;;14.80;62.70;;;;;;5034002;28;20029;-74
2023/02/03 04:47:15;;;;;;;7.95;1.35;;;14.80;62.70;;;;;;5033692;28;20500;-74
2023/02/03 04:49:40;;;;;;;6.90;1.60;;;14.80;62.70;;;;;;5033672;28;20040;-74
2023/02/03 04:52:07;;;;;;;4.18;1.25;;;14.80;62.70;;;;;;5033942;28;20100;-74
2023/02/03 04:54:33;;;;;;;5.85;1.58;;;14.80;62.60;;;;;;5033931;28;20026;-74
2023/02/03 04:56:59;;;;;;;9.48;1.60;;;14.80;62.60;;;;;;5033771;28;20026;-74
2023/02/03 04:59:26;;;;;;;5.00;1.50;;;14.80;62.50;;;;;;5033821;28;20025;-73
2023/02/03 05:01:52;;;;;;;5.43;1.70;;;14.80;62.60;;;;;;5033679;28;20564;-73
2023/02/03 05:04:18;;;;;;;7.55;1.77;;;14.90;62.60;;;;;;5033340;28;20046;-73
2023/02/03 05:06:44;;;;;;;10.27;2.15;;;14.80;62.60;;;;;;5033655;28;20018;-73
2023/02/03 05:09:10;;;;;;;7.20;1.75;;;14.80;62.60;;;;;;5033449;28;20053;-73
2023/02/03 05:11:36;;;;;;;4.85;1.35;;;14.90;62.70;;;;;;5033319;28;20364;-74
2023/02/03 05:14:02;;;;;;;6.07;1.75;;;14.90;62.60;;;;;;5033390;28;20097;-73
2023/02/03 05:16:28;;;;;;;5.80;1.55;;;14.80;62.60;;;;;;5033168;28;20018;-73
2023/02/03 05:18:54;;;;;;;9.60;1.70;;;14.90;62.60;;;;;;5033307;28;20383;-74
2023/02/03 05:21:20;;;;;;;6.07;2.10;;;14.90;62.60;;;;;;5033162;28;20021;-75
2023/02/03 05:23:46;;;;;;;5.82;1.88;;;14.90;62.60;;;;;;5033251;28;20413;-75
2023/02/03 05:26:12;;;;;;;8.88;1.70;;;14.90;62.70;;;;;;5033045;28;20427;-75
2023/02/03 05:28:38;;;;;;;4.30;1.70;;;14.90;62.70;;;;;;5032770;28;20033;-75
2023/02/03 05:31:04;;;;;;;6.30;1.70;;;14.90;62.70;;;;;;5032576;28;20040;-75
2023/02/03 05:33:30;;;;;;;5.35;1.83;;;14.90;62.70;;;;;;5032701;28;20021;-75
2023/02/03 05:35:56;;;;;;;6.22;1.83;;;14.90;62.80;;;;;;5032845;28;20022;-75
2023/02/03 05:38:23;;;;;;;7.20;1.98;;;14.90;62.70;;;;;;5032875;28;20033;-74
2023/02/03 05:43:35;;;;;;;9.23;2.42;;;14.90;63.00;;;;;;5032876;28;20040;-73
2023/02/03 05:46:03;;;;;;;7.72;2.33;;;14.90;63.10;;;;;;5032561;28;20030;-73
2023/02/03 05:48:29;;;;;;;6.07;2.80;;;14.90;63.00;;;;;;5032807;28;20059;-73
2023/02/03 05:50:55;;;;;;;8.10;2.85;;;14.90;63.10;;;;;;5032496;28;20504;-73
2023/02/03 05:53:21;;;;;;;9.93;3.88;;;15.00;63.20;;;;;;5032501;28;20033;-73
2023/02/03 05:55:47;;;;;;;8.15;4.22;;;15.00;63.30;;;;;;5032622;28;20029;-73
2023/02/03 05:58:12;;;;;;;8.30;4.45;;;14.90;63.90;;;;;;5032761;28;20068;-73
2023/02/03 06:00:38;;;;;;;7.18;4.50;;;14.90;63.40;;;;;;5032505;28;20096;-74
2023/02/03 06:03:04;;;;;;;7.78;5.20;;;15.00;63.50;;;;;;5032125;28;20531;-74
2023/02/03 06:05:31;;;;;;;13.57;6.32;;;14.90;63.40;;;;;;5032288;28;20032;-73
2023/02/03 06:07:57;;;;;;;11.55;6.53;;;14.90;63.50;;;;;;5032226;28;20025;-73
2023/02/03 06:10:24;;;;;;;12.85;7.13;;;14.90;63.50;;;;;;5032605;28;20029;-74
2023/02/03 06:12:50;;;;;;;10.50;7.38;;;14.90;63.50;;;;;;5032655;28;20076;-74
2023/02/03 06:15:16;;;;;;;9.48;6.43;;;14.90;63.60;;;;;;5032272;28;20052;-75
2023/02/03 06:17:47;;;;;;;12.00;6.90;;;14.90;63.50;;;;;;5015018;28;20088;-76
2023/02/03 06:20:15;;;;;;;8.25;5.88;;;14.90;63.60;;;;;;5032469;28;20029;-74
2023/02/03 06:22:41;;;;;;;11.77;7.53;;;14.90;64.20;;;;;;5032484;28;20025;-75
2023/02/03 06:25:08;;;;;;;8.18;6.50;;;14.90;63.70;;;;;;5031957;28;20036;-74
2023/02/03 06:27:33;;;;;;;7.95;6.43;;;15.00;63.60;;;;;;5031911;28;20117;-77
2023/02/03 06:29:59;;;;;;;11.13;6.07;;;15.00;63.50;;;;;;5032197;28;20053;-75
2023/02/03 06:32:25;;;;;;;9.98;6.60;;;15.00;63.50;;;;;;5032110;28;20440;-73
2023/02/03 06:34:51;;;;;;;11.48;6.05;;;15.00;63.60;;;;;;5032096;28;20025;-72
2023/02/03 06:37:16;;;;;;;12.90;6.03;;;15.00;63.60;;;;;;5032198;28;20022;-74
2023/02/03 06:39:42;;;;;;;14.18;5.10;;;15.00;63.50;;;;;;5036152;28;20018;-74
2023/02/03 06:42:08;;;;;;;10.40;5.13;;;15.00;63.40;;;;;;5036223;28;20049;-74
2023/02/03 06:44:34;;;;;;;7.28;4.43;;;15.00;63.50;;;;;;5036343;28;20095;-74
2023/02/03 06:47:01;;;;;;;9.00;4.70;;;15.00;63.30;;;;;;5036306;28;20056;-74
2023/02/03 06:49:28;;;;;;;8.40;4.22;;;15.00;63.20;;;;;;5035729;28;20038;-74
2023/02/03 06:51:54;;;;;;;7.13;3.80;;;15.00;63.20;;;;;;5036283;28;20026;-74
2023/02/03 06:54:20;;;;;;;8.00;3.95;;;15.00;63.20;;;;;;5035910;28;20096;-74
2023/02/03 06:56:46;;;;;;;9.68;3.72;;;15.00;63.30;;;;;;5035909;28;20109;-74
2023/02/03 06:59:11;;;;;;;7.07;3.50;;;14.90;63.30;;;;;;5035774;28;20028;-75
2023/02/03 07:01:37;;;;;;;10.80;3.67;;;14.90;71.70;;;;;;5035756;28;20025;-77
2023/02/03 07:04:04;;;;;;;5.97;2.90;;;14.90;63.20;;;;;;5035855;28;20046;-74
2023/02/03 07:06:32;;;;;;;8.68;3.33;;;15.00;63.20;;;;;;5036211;28;20108;-75
2023/02/03 07:09:04;;;;;;;8.38;3.55;;;15.00;63.10;;;;;;5035713;28;20057;-76
2023/02/03 07:11:30;;;;;;;5.97;2.63;;;15.00;63.00;;;;;;5035751;28;20026;-76
2023/02/03 07:13:57;;;;;;;5.55;2.78;;;15.00;63.00;;;;;;5035649;28;20417;-75
2023/02/03 07:16:23;;;;;;;6.15;1.90;;;15.00;63.00;;;;;;5035298;28;20500;-76
2023/02/03 07:18:49;;;;;;;8.25;2.70;;;15.00;63.00;;;;;;5035622;28;20053;-76
2023/02/03 07:21:16;;;;;;;8.40;2.40;;;15.00;63.00;;;;;;5035278;28;20044;-76
2023/02/03 07:23:42;;;;;;;7.55;2.17;;;15.00;63.00;;;;;;5035285;28;20022;-74
2023/02/03 07:26:09;;;;;;;7.22;2.30;;;15.00;62.90;;;;;;5035593;28;20026;-72
2023/02/03 07:28:35;;;;;;;9.55;2.58;;;15.10;62.90;;;;;;5035474;28;20042;-76
2023/02/03 07:31:03;;;;;;;5.97;1.95;;;15.00;62.90;;;;;;5035541;28;20101;-77
2023/02/03 07:33:30;;;;;;;7.25;2.13;;;15.00;63.40;;;;;;5035386;28;20025;-79
2023/02/03 07:35:58;;;;;;;5.28;1.88;;;15.10;62.80;;;;;;5035065;28;20014;-78
2023/02/03 07:38:25;;;;;;;8.43;2.50;;;15.00;62.80;;;;;;5035235;28;20365;-79
2023/02/03 07:40:52;;;;;;;4.93;1.67;;;15.10;62.80;;;;;;5035297;28;20021;-78
2023/02/03 07:43:18;;;;;;;8.07;2.33;;;15.00;62.80;;;;;;5034703;28;20037;-80
2023/02/03 07:45:44;;;;;;;5.78;1.90;;;15.00;62.90;;;;;;5034867;28;20029;-78
2023/02/03 07:48:10;;;;;;;5.60;1.85;;;15.00;62.90;;;;;;5035006;28;20075;-78
2023/02/03 07:50:36;;;;;;;4.65;1.58;;;15.10;62.90;;;;;;5033593;28;20022;-77
2023/02/03 07:53:03;;;;;;;8.18;1.63;;;15.10;62.80;;;;;;5034764;28;20025;-77
2023/02/03 07:55:29;;;;;;;5.88;1.60;;;15.10;62.90;;;;;;5034905;28;20029;-78
2023/02/03 07:57:56;;;;;;;5.82;1.88;;;15.10;62.90;;;;;;5034778;28;20108;-78
2023/02/03 08:00:23;;;;;;;12.70;2.03;;;15.10;63.00;;;;;;5034775;28;20032;-77
2023/02/03 08:02:50;;;;;;;6.30;1.63;;;15.10;63.10;;;;;;5034397;28;20123;-77
2023/02/03 08:05:16;;;;;;;6.75;1.55;;;15.10;63.00;;;;;;5016774;28;20452;-77
2023/02/03 08:07:42;;;;;;;5.60;2.00;;;15.10;63.10;;;;;;5034348;28;20044;-77
2023/02/03 08:10:10;;;;;;;7.05;1.50;;;15.10;63.20;;;;;;5034406;28;20102;-77
2023/02/03 08:12:36;;;;;;;5.88;1.60;;;15.10;63.10;;;;;;5034229;28;20472;-77
2023/02/03 08:15:03;;;;;;;6.43;1.55;;;15.10;64.00;;;;;;5034416;28;20018;-77
2023/02/03 08:17:29;;;;;;;4.30;1.60;;;15.10;63.40;;;;;;5034631;28;20022;-78
2023/02/03 08:19:54;;;;;;;4.47;1.40;;;15.10;63.30;;;;;;5034396;28;20083;-78
2023/02/03 08:22:20;;;;;;;8.75;2.22;;;15.10;63.40;;;;;;5034585;28;20028;-78
2023/02/03 08:24:46;;;;;;;5.32;1.42;;;15.10;63.50;;;;;;5034315;28;20032;-74
2023/02/03 08:27:13;;;;;;;7.75;1.30;;;15.10;63.50;;;;;;5034127;28;20084;-73
2023/02/03 08:29:39;;;;;;;7.38;1.80;;;15.20;63.60;;;;;;5034070;28;20029;-73
2023/02/03 08:32:08;;;;;;;3.83;1.20;;;15.20;63.50;;;;;;5034089;28;20451;-72
2023/02/03 08:34:34;;;;;;;3.45;1.10;;;15.20;63.40;;;;;;5034054;28;20025;-73
2023/02/03 08:37:00;;;;;;;5.78;1.60;;;15.20;63.50;;;;;;5033974;28;20518;-72
2023/02/03 08:39:27;;;;;;;3.85;1.35;;;15.20;63.50;;;;;;5034187;28;20052;-72
2023/02/03 08:41:53;;;;;;;5.28;1.25;;;15.20;63.50;;;;;;5034180;28;20026;-75
2023/02/03 08:44:19;;;;;;;7.72;1.88;;;15.20;63.40;;;;;;5034206;28;20022;-75
2023/02/03 08:46:49;;;;;;;3.47;1.13;;;15.30;63.40;;;;;;5033745;28;20030;-76
2023/02/03 08:49:15;;;;;;;7.25;1.63;;;15.30;64.00;;;;;;5033675;28;20119;-75
2023/02/03 08:51:42;;;;;;;5.85;1.48;;;15.30;63.30;;;;;;5033804;28;20032;-75
2023/02/03 08:54:08;;;;;;;4.25;1.30;;;15.30;63.20;;;;;;5034036;28;20032;-75
2023/02/03 08:56:34;;;;;;;9.18;1.90;;;15.30;63.20;;;;;;5033937;28;20026;-75
2023/02/03 08:59:00;;;;;;;8.20;2.00;;;15.30;63.30;;;;;;5033618;28;20391;-73
2023/02/03 09:01:26;;;;;;;6.00;1.38;;;15.50;71.30;;;;;;5033383;28;20063;-76
2023/02/03 09:03:52;;;;;;;7.65;1.52;;;15.30;63.10;;;;;;5033254;28;20077;-76
2023/02/03 09:06:19;;;;;;;6.60;1.63;;;15.40;63.10;;;;;;5033758;28;20052;-76
2023/02/03 09:08:45;;;;;;;4.85;1.27;;;15.40;63.10;;;;;;5033199;28;20488;-76
2023/02/03 09:11:12;;;;;;;5.60;1.80;;;15.40;63.10;;;;;;5033599;28;20113;-75
2023/02/03 09:13:39;;;;;;;4.95;1.77;;;15.40;63.10;;;;;;5033249;28;20079;-77
2023/02/03 09:16:08;;;;;;;3.75;1.45;;;15.40;63.00;;;;;;5033290;28;20025;-78
2023/02/03 09:18:34;;;;;;;4.78;1.65;;;15.40;63.00;;;;;;5033255;28;20021;-76
2023/02/03 09:21:03;;;;;;;6.95;1.52;;;15.40;63.00;;;;;;5033079;28;20063;-75
2023/02/03 09:23:30;;;;;;;3.83;1.20;;;15.40;63.20;;;;;;5033509;28;20092;-76
2023/02/03 09:26:00;;;;;;;6.78;1.58;;;15.40;63.20;;;;;;5036404;28;20049;-76
2023/02/03 09:28:26;;;;;;;5.88;1.40;;;15.40;63.20;;;;;;5033262;28;20108;-77
2023/02/03 09:30:52;;;;;;;2.95;1.20;;;15.40;63.30;;;;;;5033146;28;20071;-74
2023/02/03 09:33:18;;;;;;;6.03;1.67;;;15.40;63.30;;;;;;5033098;28;20520;-73
2023/02/03 09:35:52;;;;;;;8.93;1.42;;;15.40;63.30;;;;;;5032677;28;20097;-74
2023/02/03 09:38:18;;;;;;;6.55;1.60;;;15.40;63.20;;;;;;5032799;28;20022;-79
2023/02/03 09:40:50;;;;;;;7.85;2.03;;;15.40;63.30;;;;;;5032779;28;20063;-76
2023/02/03 09:43:24;;;;;;;5.53;1.30;;;15.50;63.30;;;;;;5032830;28;20036;-77
2023/02/03 09:45:51;;;;;;;6.10;1.25;;;15.40;63.30;;;;;;5032982;28;20095;-76
2023/02/03 09:48:21;;;;;;;4.88;1.30;;;15.50;63.30;;;;;;5032913;28;20037;-75
2023/02/03 09:50:49;;;;;;;5.68;1.30;;;15.40;63.40;;;;;;5032957;28;20022;-75
2023/02/03 09:53:28;;;;;;;6.93;1.92;;;15.50;63.50;;;;;;5032881;28;20145;-75
2023/02/03 09:55:56;;;;;;;5.28;1.00;;;15.50;63.50;;;;;;5032348;28;20021;-76
2023/02/03 09:58:23;;;;;;;4.18;1.25;;;15.50;63.50;;;;;;5032828;28;20072;-75
2023/02/03 10:00:59;;;;;;;4.18;1.58;;;15.50;63.40;;;;;;5032688;28;20109;-74
2023/02/03 10:03:42;;;;;;;7.18;1.23;;;15.60;63.30;;;;;;5032186;28;20059;-74
2023/02/03 10:06:30;;;;;;;4.72;1.80;;;15.50;63.20;;;;;;5032617;28;20022;-75
2023/02/03 10:08:58;;;;;;;4.40;1.17;;;15.60;64.00;;;;;;5032455;28;20052;-75
2023/02/03 10:11:30;;;;;;;3.92;1.45;;;15.60;63.30;;;;;;5032408;28;20033;-75
2023/02/03 10:14:05;;;;;;;4.68;1.25;;;15.60;63.30;;;;;;5032108;28;20052;-74
2023/02/03 10:16:36;;;;;;;5.82;1.33;;;15.60;63.30;;;;;;5032412;28;20030;-73
2023/02/03 10:19:10;;;;;;;5.78;1.20;;;15.60;63.40;;;;;;5032174;28;20511;-75
2023/02/03 10:21:37;;;;;;;5.10;1.27;;;15.60;63.40;;;;;;5032505;28;20029;-74
2023/02/03 10:24:16;;;;;;;5.65;1.17;;;15.60;63.40;;;;;;5032380;28;20026;-74
2023/02/03 10:26:42;;;;;;;7.55;1.75;;;15.60;64.00;;;;;;5032161;28;20075;-75
2023/02/03 10:29:33;;;;;;;2.92;1.10;;;15.60;63.30;;;;;;5032322;28;20037;-74
2023/02/03 10:31:59;;;;;;;6.13;1.25;;;15.60;63.20;;;;;;5032490;28;20051;-74
2023/02/03 10:34:26;;;;;;;4.50;1.30;;;15.60;63.30;;;;;;5032134;28;20439;-74
2023/02/03 10:36:56;;;;;;;3.90;1.30;;;15.60;63.20;;;;;;5032077;28;20488;-73
2023/02/03 10:39:41;;;;;;;4.13;1.20;;;15.60;63.30;;;;;;5032329;28;20017;-74
2023/02/03 10:42:10;;;;;;;3.78;1.05;;;15.70;63.40;;;;;;5032225;28;20053;-74
2023/02/03 10:44:42;;;;;;;3.97;1.10;;;15.70;63.30;;;;;;5031953;28;20475;-74
2023/02/03 10:47:33;;;;;;;3.55;1.20;;;15.70;63.40;;;;;;5031784;28;20510;-74
2023/02/03 10:50:30;;;;;;;4.15;1.10;;;15.70;64.00;;;;;;5030478;28;20555;-73
2023/02/03 10:53:20;;;;;;;2.67;0.95;;;15.70;63.40;;;;;;5031974;28;20026;-73
2023/02/03 10:55:49;;;;;;;4.97;1.05;;;15.70;63.40;;;;;;5031769;28;20033;-73
2023/02/03 10:58:26;;;;;;;5.40;1.33;;;15.70;63.50;;;;;;5031445;28;20022;-73
2023/02/03 11:01:03;;;;;;;3.25;1.23;;;15.70;63.50;;;;;;5031722;28;20484;-74
2023/02/03 11:03:29;;;;;;;3.00;1.08;;;15.70;63.50;;;;;;5031339;28;20514;-73
2023/02/03 11:06:16;;;;;;;3.20;0.85;;;15.70;63.50;;;;;;5031932;28;20040;-73
2023/02/03 11:08:45;;;;;;;4.75;1.00;;;15.80;63.60;;;;;;5031869;28;20040;-76
2023/02/03 11:11:32;;;;;;;2.47;0.93;;;15.70;63.50;;;;;;5032104;28;20018;-75
2023/02/03 11:14:01;;;;;;;3.53;1.10;;;15.80;63.60;;;;;;5031967;28;20065;-76
2023/02/03 11:16:29;;;;;;;1.80;0.90;;;15.80;63.70;;;;;;5031886;28;20025;-75
2023/02/03 11:19:15;;;;;;;3.60;0.95;;;15.80;63.70;;;;;;5031561;28;20033;-75
2023/02/03 11:21:51;;;;;;;4.68;1.10;;;15.80;63.70;;;;;;5032016;28;20143;-77
2023/02/03 11:24:19;;;;;;;4.28;1.35;;;15.80;63.70;;;;;;5033652;28;20021;-75
2023/02/03 11:26:47;;;;;;;5.38;1.10;;;15.80;63.70;;;;;;5035634;28;20036;-76
2023/02/03 11:29:27;;;;;;;3.60;0.73;;;15.80;63.70;;;;;;5035385;28;20037;-76
2023/02/03 11:31:55;;;;;;;2.55;0.90;;;15.80;63.80;;;;;;5035504;28;20022;-74
2023/02/03 11:34:31;;;;;;;2.13;0.82;;;15.80;63.80;;;;;;5034951;28;20025;-76
2023/02/03 11:37:30;;;;;;;4.53;1.20;;;15.80;63.80;;;;;;5034961;28;20040;-75
2023/02/03 11:40:14;;;;;;;6.63;0.80;;;15.80;63.80;;;;;;5034748;28;20063;-75
2023/02/03 11:42:48;;;;;;;1.98;0.77;;;15.50;63.60;;;;;;5035171;28;20029;-76
2023/02/03 11:45:17;;;;;;;4.43;0.98;;;15.80;63.90;;;;;;5034948;28;20022;-73
2023/02/03 11:47:54;;;;;;;3.10;1.15;;;15.90;63.90;;;;;;5034967;28;20136;-76
2023/02/03 11:50:32;;;;;;;2.35;0.88;;;15.90;63.90;;;;;;5035000;28;20438;-76
2023/02/03 11:52:58;;;;;;;5.00;1.30;;;15.90;63.90;;;;;;5034982;28;20422;-76
2023/02/03 11:55:44;;;;;;;3.05;1.13;;;15.90;63.80;;;;;;5034882;28;20030;-76
2023/02/03 11:58:48;;;;;;;2.85;1.00;;;15.80;63.90;;;;;;5034502;28;20067;-76
2023/02/03 12:01:27;;;;;;;2.20;0.63;;;15.90;63.90;;;;;;5012548;28;20034;-76
2023/02/03 12:04:01;;;;;;;4.25;0.98;;;15.90;64.00;;;;;;5034478;28;20061;-74
2023/02/03 12:06:33;;;;;;;3.42;0.85;;;15.90;64.00;;;;;;5034682;28;20096;-74
2023/02/03 12:09:19;;;;;;;5.57;1.00;;;15.90;64.00;;;;;;5034514;28;20087;-75
2023/02/03 12:12:02;;;;;;;1.67;0.60;;;15.90;64.00;;;;;;5017285;28;20083;-74
2023/02/03 12:14:57;;;;;;;1.98;0.80;;;15.90;64.40;;;;;;5034433;28;20037;-74
2023/02/03 12:17:48;;;;;;;2.35;0.90;;;15.90;64.00;;;;;;5034466;28;20025;-74
2023/02/03 12:20:56;;;;;;;2.85;1.00;;;15.90;64.00;;;;;;5034325;28;20022;-75
2023/02/03 12:23:46;;;;;;;1.88;0.90;;;15.90;64.10;;;;;;5031098;28;20447;-75
2023/02/03 12:26:25;;;;;;;2.65;0.80;;;15.90;64.10;;;;;;5034340;28;20108;-75
2023/02/03 12:29:03;;;;;;;1.90;0.90;;;16.00;64.10;;;;;;5032664;28;20036;-75
2023/02/03 12:31:59;;;;;;;2.47;0.75;;;16.00;64.10;;;;;;5032750;28;20021;-76
2023/02/03 12:34:38;;;;;;;2.95;0.70;;;16.00;64.10;;;;;;5033585;28;20029;-74
2023/02/03 12:37:22;;;;;;;3.22;0.95;;;16.00;64.10;;;;;;5032680;28;20079;-74
2023/02/03 12:39:54;;;;;;;1.75;0.73;;;16.00;64.10;;;;;;5032937;28;20033;-74
2023/02/03 12:42:22;;;;;;;2.03;0.73;;;16.00;64.10;;;;;;5033453;28;20021;-75
2023/02/03 12:45:17;;;;;;;1.55;0.57;;;16.00;64.00;;;;;;5033706;28;20029;-75
2023/02/03 12:47:49;;;;;;;2.08;0.60;;;16.00;64.10;;;;;;5027929;28;20064;-75
2023/02/03 12:50:37;;;;;;;2.90;0.70;;;16.00;64.10;;;;;;5033766;28;20029;-75
2023/02/03 12:53:32;;;;;;;0.95;0.57;;;16.10;64.10;;;;;;5033582;28;20030;-74
2023/02/03 12:56:09;;;;;;;1.55;0.70;;;16.00;64.00;;;;;;5032949;28;20037;-74
2023/02/03 12:58:46;;;;;;;1.38;0.68;;;16.10;64.00;;;;;;5033473;28;20029;-75
2023/02/03 13:01:18;;;;;;;3.13;0.80;;;16.10;64.00;;;;;;5033864;28;20022;-74
2023/02/03 13:03:50;;;;;;;1.33;0.65;;;16.10;64.70;;;;;;5033197;28;20041;-73
2023/02/03 13:06:25;;;;;;;3.05;0.70;;;16.10;64.10;;;;;;5033447;28;20480;-73
2023/02/03 13:09:22;;;;;;;2.58;0.75;;;16.10;64.00;;;;;;5033135;28;20468;-74
2023/02/03 13:11:56;;;;;;;2.80;0.73;;;16.10;64.00;;;;;;5033523;28;20029;-73